sensor_id;sensor_type;location;lat;lon;timestamp;P1;durP1;ratioP1;P2;durP2;ratioP2
41693;SDS011;27377;50.666;9.150;2023-03-01T00:01:10;17.43;;;11.63;;
41693;SDS011;27377;50.666;9.150;2023-03-01T00:03:37;16.50;;;11.87;;
41693;SDS011;27377;50.666;9.150;2023-03-01T00:06:03;18.40;;;11.68;;
41693;SDS011;27377;50.666;9.150;2023-03-01T00:08:30;15.88;;;11.75;;
41693;SDS011;27377;50.666;9.150;2023-03-01T00:11:06;17.50;;;11.57;;
41693;SDS011;27377;50.666;9.150;2023-03-01T00:13:52;15.75;;;11.38;;
41693;SDS011;27377;50.666;9.150;2023-03-01T00:16:22;15.75;;;11.13;;
41693;SDS011;27377;50.666;9.150;2023-03-01T00:18:53;16.50;;;12.10;;
41693;SDS011;27377;50.666;9.150;2023-03-01T00:21:19;17.00;;;12.38;;
41693;SDS011;27377;50.666;9.150;2023-03-01T00:23:47;16.48;;;11.70;;
41693;SDS011;27377;50.666;9.150;2023-03-01T00:26:13;16.63;;;12.35;;
41693;SDS011;27377;50.666;9.150;2023-03-01T00:28:41;17.63;;;12.38;;
41693;SDS011;27377;50.666;9.150;2023-03-01T00:31:08;16.13;;;11.25;;
41693;SDS011;27377;50.666;9.150;2023-03-01T00:33:38;14.40;;;11.63;;
41693;SDS011;27377;50.666;9.150;2023-03-01T00:36:04;16.83;;;12.10;;
41693;SDS011;27377;50.666;9.150;2023-03-01T00:38:34;17.38;;;11.98;;
41693;SDS011;27377;50.666;9.150;2023-03-01T00:41:04;18.33;;;12.50;;
41693;SDS011;27377;50.666;9.150;2023-03-01T00:43:33;19.30;;;12.88;;
41693;SDS011;27377;50.666;9.150;2023-03-01T00:46:11;16.38;;;11.90;;
41693;SDS011;27377;50.666;9.150;2023-03-01T00:48:39;17.25;;;12.13;;
41693;SDS011;27377;50.666;9.150;2023-03-01T00:51:09;17.58;;;12.35;;
41693;SDS011;27377;50.666;9.150;2023-03-01T00:53:37;18.90;;;12.60;;
41693;SDS011;27377;50.666;9.150;2023-03-01T00:56:03;17.65;;;12.23;;
41693;SDS011;27377;50.666;9.150;2023-03-01T00:58:30;18.08;;;12.77;;
41693;SDS011;27377;50.666;9.150;2023-03-01T01:00:56;17.77;;;12.33;;
41693;SDS011;27377;50.666;9.150;2023-03-01T01:03:21;17.63;;;12.50;;
41693;SDS011;27377;50.666;9.150;2023-03-01T01:05:49;17.58;;;12.77;;
41693;SDS011;27377;50.666;9.150;2023-03-01T01:08:15;22.08;;;13.82;;
41693;SDS011;27377;50.666;9.150;2023-03-01T01:10:42;20.33;;;13.30;;
41693;SDS011;27377;50.666;9.150;2023-03-01T01:13:09;17.08;;;12.57;;
41693;SDS011;27377;50.666;9.150;2023-03-01T01:15:35;19.27;;;12.83;;
41693;SDS011;27377;50.666;9.150;2023-03-01T01:18:01;17.35;;;13.07;;
41693;SDS011;27377;50.666;9.150;2023-03-01T01:20:26;21.40;;;13.45;;
41693;SDS011;27377;50.666;9.150;2023-03-01T01:22:52;19.05;;;12.07;;
41693;SDS011;27377;50.666;9.150;2023-03-01T01:25:18;16.43;;;12.07;;
41693;SDS011;27377;50.666;9.150;2023-03-01T01:27:44;18.55;;;12.90;;
41693;SDS011;27377;50.666;9.150;2023-03-01T01:30:10;19.63;;;12.90;;
41693;SDS011;27377;50.666;9.150;2023-03-01T01:32:36;17.83;;;12.00;;
41693;SDS011;27377;50.666;9.150;2023-03-01T01:35:01;17.83;;;11.50;;
41693;SDS011;27377;50.666;9.150;2023-03-01T01:37:27;15.53;;;11.40;;
41693;SDS011;27377;50.666;9.150;2023-03-01T01:39:56;19.73;;;12.97;;
41693;SDS011;27377;50.666;9.150;2023-03-01T01:42:24;19.38;;;13.70;;
41693;SDS011;27377;50.666;9.150;2023-03-01T01:45:18;19.17;;;14.17;;
41693;SDS011;27377;50.666;9.150;2023-03-01T01:47:53;20.77;;;14.23;;
41693;SDS011;27377;50.666;9.150;2023-03-01T01:50:23;17.00;;;12.02;;
41693;SDS011;27377;50.666;9.150;2023-03-01T01:52:49;18.63;;;12.38;;
41693;SDS011;27377;50.666;9.150;2023-03-01T01:55:20;19.25;;;13.45;;
41693;SDS011;27377;50.666;9.150;2023-03-01T01:57:49;17.30;;;13.18;;
41693;SDS011;27377;50.666;9.150;2023-03-01T02:00:24;18.08;;;12.90;;
41693;SDS011;27377;50.666;9.150;2023-03-01T02:02:58;17.90;;;12.23;;
41693;SDS011;27377;50.666;9.150;2023-03-01T02:05:35;17.17;;;11.88;;
41693;SDS011;27377;50.666;9.150;2023-03-01T02:08:14;18.03;;;12.20;;
41693;SDS011;27377;50.666;9.150;2023-03-01T02:10:43;19.55;;;12.45;;
41693;SDS011;27377;50.666;9.150;2023-03-01T02:13:10;18.33;;;12.70;;
41693;SDS011;27377;50.666;9.150;2023-03-01T02:15:37;18.00;;;12.20;;
41693;SDS011;27377;50.666;9.150;2023-03-01T02:18:04;17.87;;;12.80;;
41693;SDS011;27377;50.666;9.150;2023-03-01T02:23:10;21.00;;;12.90;;
41693;SDS011;27377;50.666;9.150;2023-03-01T02:28:25;17.98;;;12.35;;
41693;SDS011;27377;50.666;9.150;2023-03-01T02:30:54;17.20;;;12.15;;
41693;SDS011;27377;50.666;9.150;2023-03-01T02:33:39;19.70;;;12.38;;
41693;SDS011;27377;50.666;9.150;2023-03-01T02:36:06;17.77;;;12.52;;
41693;SDS011;27377;50.666;9.150;2023-03-01T02:38:39;19.15;;;13.57;;
41693;SDS011;27377;50.666;9.150;2023-03-01T02:41:06;20.25;;;14.05;;
41693;SDS011;27377;50.666;9.150;2023-03-01T02:43:35;21.20;;;14.40;;
41693;SDS011;27377;50.666;9.150;2023-03-01T02:46:08;20.83;;;15.50;;
41693;SDS011;27377;50.666;9.150;2023-03-01T02:48:45;22.45;;;15.75;;
41693;SDS011;27377;50.666;9.150;2023-03-01T02:53:56;23.05;;;15.93;;
41693;SDS011;27377;50.666;9.150;2023-03-01T02:56:43;20.10;;;14.15;;
41693;SDS011;27377;50.666;9.150;2023-03-01T02:59:10;18.38;;;12.60;;
41693;SDS011;27377;50.666;9.150;2023-03-01T03:01:36;17.85;;;12.18;;
41693;SDS011;27377;50.666;9.150;2023-03-01T03:04:10;19.02;;;12.43;;
41693;SDS011;27377;50.666;9.150;2023-03-01T03:06:37;21.52;;;14.98;;
41693;SDS011;27377;50.666;9.150;2023-03-01T03:09:03;26.50;;;18.60;;
41693;SDS011;27377;50.666;9.150;2023-03-01T03:11:29;21.50;;;15.65;;
41693;SDS011;27377;50.666;9.150;2023-03-01T03:13:57;23.00;;;15.65;;
41693;SDS011;27377;50.666;9.150;2023-03-01T03:16:22;25.60;;;17.43;;
41693;SDS011;27377;50.666;9.150;2023-03-01T03:18:49;26.65;;;18.35;;
41693;SDS011;27377;50.666;9.150;2023-03-01T03:21:15;19.60;;;14.07;;
41693;SDS011;27377;50.666;9.150;2023-03-01T03:23:41;25.23;;;15.43;;
41693;SDS011;27377;50.666;9.150;2023-03-01T03:26:06;21.77;;;15.27;;
41693;SDS011;27377;50.666;9.150;2023-03-01T03:28:32;20.20;;;14.77;;
41693;SDS011;27377;50.666;9.150;2023-03-01T03:30:59;21.10;;;14.90;;
41693;SDS011;27377;50.666;9.150;2023-03-01T03:33:31;23.23;;;15.20;;
41693;SDS011;27377;50.666;9.150;2023-03-01T03:35:57;21.48;;;15.32;;
41693;SDS011;27377;50.666;9.150;2023-03-01T03:38:23;21.50;;;14.82;;
41693;SDS011;27377;50.666;9.150;2023-03-01T03:41:07;21.70;;;15.23;;
41693;SDS011;27377;50.666;9.150;2023-03-01T03:43:34;22.27;;;15.82;;
41693;SDS011;27377;50.666;9.150;2023-03-01T03:46:01;21.52;;;15.20;;
41693;SDS011;27377;50.666;9.150;2023-03-01T03:48:34;22.00;;;15.43;;
41693;SDS011;27377;50.666;9.150;2023-03-01T03:51:04;22.90;;;15.88;;
41693;SDS011;27377;50.666;9.150;2023-03-01T03:53:30;18.98;;;13.23;;
41693;SDS011;27377;50.666;9.150;2023-03-01T03:55:57;21.00;;;13.90;;
41693;SDS011;27377;50.666;9.150;2023-03-01T03:58:23;19.27;;;14.18;;
41693;SDS011;27377;50.666;9.150;2023-03-01T04:00:52;24.13;;;14.50;;
41693;SDS011;27377;50.666;9.150;2023-03-01T04:03:20;18.92;;;13.77;;
41693;SDS011;27377;50.666;9.150;2023-03-01T04:05:47;18.60;;;13.70;;
41693;SDS011;27377;50.666;9.150;2023-03-01T04:08:13;22.42;;;14.75;;
41693;SDS011;27377;50.666;9.150;2023-03-01T04:10:39;21.95;;;14.65;;
41693;SDS011;27377;50.666;9.150;2023-03-01T04:13:07;21.85;;;15.02;;
41693;SDS011;27377;50.666;9.150;2023-03-01T04:15:35;20.73;;;14.98;;
41693;SDS011;27377;50.666;9.150;2023-03-01T04:18:01;20.70;;;14.88;;
41693;SDS011;27377;50.666;9.150;2023-03-01T04:20:28;20.70;;;14.85;;
41693;SDS011;27377;50.666;9.150;2023-03-01T04:22:59;20.00;;;14.25;;
41693;SDS011;27377;50.666;9.150;2023-03-01T04:25:37;21.15;;;14.85;;
41693;SDS011;27377;50.666;9.150;2023-03-01T04:28:03;22.50;;;15.27;;
41693;SDS011;27377;50.666;9.150;2023-03-01T04:30:29;21.50;;;15.23;;
41693;SDS011;27377;50.666;9.150;2023-03-01T04:33:00;22.27;;;15.35;;
41693;SDS011;27377;50.666;9.150;2023-03-01T04:35:36;23.98;;;15.77;;
41693;SDS011;27377;50.666;9.150;2023-03-01T04:38:03;22.27;;;15.18;;
41693;SDS011;27377;50.666;9.150;2023-03-01T04:40:30;22.58;;;15.82;;
41693;SDS011;27377;50.666;9.150;2023-03-01T04:42:56;21.83;;;15.60;;
41693;SDS011;27377;50.666;9.150;2023-03-01T04:45:21;22.67;;;14.93;;
41693;SDS011;27377;50.666;9.150;2023-03-01T04:47:47;21.05;;;14.30;;
41693;SDS011;27377;50.666;9.150;2023-03-01T04:50:13;21.30;;;14.25;;
41693;SDS011;27377;50.666;9.150;2023-03-01T04:52:41;19.27;;;13.68;;
41693;SDS011;27377;50.666;9.150;2023-03-01T04:55:07;20.17;;;13.68;;
41693;SDS011;27377;50.666;9.150;2023-03-01T04:57:34;19.02;;;14.00;;
41693;SDS011;27377;50.666;9.150;2023-03-01T05:00:00;20.42;;;14.55;;
41693;SDS011;27377;50.666;9.150;2023-03-01T05:02:25;20.30;;;14.35;;
41693;SDS011;27377;50.666;9.150;2023-03-01T05:04:51;20.30;;;14.47;;
41693;SDS011;27377;50.666;9.150;2023-03-01T05:07:17;19.63;;;13.60;;
41693;SDS011;27377;50.666;9.150;2023-03-01T05:09:45;20.50;;;14.70;;
41693;SDS011;27377;50.666;9.150;2023-03-01T05:12:11;22.65;;;14.52;;
41693;SDS011;27377;50.666;9.150;2023-03-01T05:14:37;20.92;;;14.35;;
41693;SDS011;27377;50.666;9.150;2023-03-01T05:17:03;22.33;;;15.15;;
41693;SDS011;27377;50.666;9.150;2023-03-01T05:19:30;22.33;;;15.55;;
41693;SDS011;27377;50.666;9.150;2023-03-01T05:21:56;21.08;;;14.57;;
41693;SDS011;27377;50.666;9.150;2023-03-01T05:24:31;23.40;;;15.60;;
41693;SDS011;27377;50.666;9.150;2023-03-01T05:26:59;21.02;;;14.75;;
41693;SDS011;27377;50.666;9.150;2023-03-01T05:29:26;21.38;;;15.35;;
41693;SDS011;27377;50.666;9.150;2023-03-01T05:31:56;22.30;;;15.60;;
41693;SDS011;27377;50.666;9.150;2023-03-01T05:34:26;21.83;;;15.27;;
41693;SDS011;27377;50.666;9.150;2023-03-01T05:36:56;22.30;;;15.07;;
41693;SDS011;27377;50.666;9.150;2023-03-01T05:39:23;19.95;;;14.55;;
41693;SDS011;27377;50.666;9.150;2023-03-01T05:41:54;23.10;;;14.95;;
41693;SDS011;27377;50.666;9.150;2023-03-01T05:44:29;19.90;;;14.80;;
41693;SDS011;27377;50.666;9.150;2023-03-01T05:46:58;21.50;;;15.25;;
41693;SDS011;27377;50.666;9.150;2023-03-01T05:49:35;19.67;;;14.50;;
41693;SDS011;27377;50.666;9.150;2023-03-01T05:52:01;21.00;;;14.80;;
41693;SDS011;27377;50.666;9.150;2023-03-01T05:54:29;23.40;;;15.82;;
41693;SDS011;27377;50.666;9.150;2023-03-01T05:56:55;21.95;;;15.70;;
41693;SDS011;27377;50.666;9.150;2023-03-01T05:59:21;22.77;;;15.77;;
41693;SDS011;27377;50.666;9.150;2023-03-01T06:01:47;26.33;;;15.90;;
41693;SDS011;27377;50.666;9.150;2023-03-01T06:04:12;23.15;;;16.38;;
41693;SDS011;27377;50.666;9.150;2023-03-01T06:06:38;24.85;;;16.38;;
41693;SDS011;27377;50.666;9.150;2023-03-01T06:09:07;24.73;;;16.63;;
41693;SDS011;27377;50.666;9.150;2023-03-01T06:11:34;24.35;;;17.02;;
41693;SDS011;27377;50.666;9.150;2023-03-01T06:14:00;25.70;;;17.03;;
41693;SDS011;27377;50.666;9.150;2023-03-01T06:16:26;24.85;;;16.95;;
41693;SDS011;27377;50.666;9.150;2023-03-01T06:18:51;25.27;;;17.52;;
41693;SDS011;27377;50.666;9.150;2023-03-01T06:21:17;23.60;;;17.48;;
41693;SDS011;27377;50.666;9.150;2023-03-01T06:23:43;25.53;;;18.10;;
41693;SDS011;27377;50.666;9.150;2023-03-01T06:26:08;26.67;;;18.33;;
41693;SDS011;27377;50.666;9.150;2023-03-01T06:28:34;30.67;;;20.98;;
41693;SDS011;27377;50.666;9.150;2023-03-01T06:31:02;32.95;;;22.63;;
41693;SDS011;27377;50.666;9.150;2023-03-01T06:33:27;32.50;;;22.13;;
41693;SDS011;27377;50.666;9.150;2023-03-01T06:35:56;30.73;;;21.00;;
41693;SDS011;27377;50.666;9.150;2023-03-01T06:38:22;28.92;;;21.13;;
41693;SDS011;27377;50.666;9.150;2023-03-01T06:40:52;30.38;;;21.08;;
41693;SDS011;27377;50.666;9.150;2023-03-01T06:43:22;31.97;;;21.27;;
41693;SDS011;27377;50.666;9.150;2023-03-01T06:45:48;30.13;;;20.80;;
41693;SDS011;27377;50.666;9.150;2023-03-01T06:48:14;27.73;;;19.53;;
41693;SDS011;27377;50.666;9.150;2023-03-01T06:50:40;26.88;;;19.60;;
41693;SDS011;27377;50.666;9.150;2023-03-01T06:53:05;28.23;;;19.70;;
41693;SDS011;27377;50.666;9.150;2023-03-01T06:55:31;26.80;;;19.67;;
41693;SDS011;27377;50.666;9.150;2023-03-01T06:57:57;28.37;;;19.33;;
41693;SDS011;27377;50.666;9.150;2023-03-01T07:00:24;25.55;;;18.73;;
41693;SDS011;27377;50.666;9.150;2023-03-01T07:02:51;26.33;;;19.13;;
41693;SDS011;27377;50.666;9.150;2023-03-01T07:05:17;27.05;;;18.58;;
41693;SDS011;27377;50.666;9.150;2023-03-01T07:07:42;26.30;;;19.10;;
41693;SDS011;27377;50.666;9.150;2023-03-01T07:10:08;25.98;;;19.42;;
41693;SDS011;27377;50.666;9.150;2023-03-01T07:12:35;28.02;;;19.25;;
41693;SDS011;27377;50.666;9.150;2023-03-01T07:15:00;27.23;;;18.50;;
41693;SDS011;27377;50.666;9.150;2023-03-01T07:17:26;26.98;;;19.08;;
41693;SDS011;27377;50.666;9.150;2023-03-01T07:19:52;27.15;;;18.75;;
41693;SDS011;27377;50.666;9.150;2023-03-01T07:22:17;25.88;;;18.77;;
41693;SDS011;27377;50.666;9.150;2023-03-01T07:24:43;26.02;;;18.83;;
41693;SDS011;27377;50.666;9.150;2023-03-01T07:27:09;26.23;;;18.47;;
41693;SDS011;27377;50.666;9.150;2023-03-01T07:29:34;26.73;;;18.45;;
41693;SDS011;27377;50.666;9.150;2023-03-01T07:32:01;26.00;;;19.15;;
41693;SDS011;27377;50.666;9.150;2023-03-01T07:34:27;24.85;;;18.25;;
41693;SDS011;27377;50.666;9.150;2023-03-01T07:36:53;26.33;;;18.03;;
41693;SDS011;27377;50.666;9.150;2023-03-01T07:39:18;27.90;;;19.03;;
41693;SDS011;27377;50.666;9.150;2023-03-01T07:41:44;25.03;;;18.77;;
41693;SDS011;27377;50.666;9.150;2023-03-01T07:44:09;25.27;;;18.07;;
41693;SDS011;27377;50.666;9.150;2023-03-01T07:46:35;26.25;;;18.23;;
41693;SDS011;27377;50.666;9.150;2023-03-01T07:49:01;26.83;;;18.13;;
41693;SDS011;27377;50.666;9.150;2023-03-01T07:51:26;25.40;;;18.70;;
41693;SDS011;27377;50.666;9.150;2023-03-01T07:53:52;26.90;;;18.83;;
41693;SDS011;27377;50.666;9.150;2023-03-01T07:56:17;26.07;;;18.53;;
41693;SDS011;27377;50.666;9.150;2023-03-01T07:58:44;26.35;;;18.65;;
41693;SDS011;27377;50.666;9.150;2023-03-01T08:01:11;24.45;;;18.20;;
41693;SDS011;27377;50.666;9.150;2023-03-01T08:03:38;27.42;;;18.50;;
41693;SDS011;27377;50.666;9.150;2023-03-01T08:06:05;26.30;;;18.70;;
41693;SDS011;27377;50.666;9.150;2023-03-01T08:08:32;26.55;;;19.35;;
41693;SDS011;27377;50.666;9.150;2023-03-01T08:10:59;25.77;;;18.55;;
41693;SDS011;27377;50.666;9.150;2023-03-01T08:13:26;25.33;;;18.92;;
41693;SDS011;27377;50.666;9.150;2023-03-01T08:15:51;24.55;;;18.55;;
41693;SDS011;27377;50.666;9.150;2023-03-01T08:18:18;27.73;;;18.88;;
41693;SDS011;27377;50.666;9.150;2023-03-01T08:20:45;26.73;;;18.83;;
41693;SDS011;27377;50.666;9.150;2023-03-01T08:23:11;27.38;;;18.33;;
41693;SDS011;27377;50.666;9.150;2023-03-01T08:25:37;26.15;;;18.80;;
41693;SDS011;27377;50.666;9.150;2023-03-01T08:28:03;26.00;;;18.20;;
41693;SDS011;27377;50.666;9.150;2023-03-01T08:30:29;28.20;;;18.13;;
41693;SDS011;27377;50.666;9.150;2023-03-01T08:32:54;23.50;;;16.90;;
41693;SDS011;27377;50.666;9.150;2023-03-01T08:35:20;24.03;;;17.13;;
41693;SDS011;27377;50.666;9.150;2023-03-01T08:37:46;25.70;;;17.77;;
41693;SDS011;27377;50.666;9.150;2023-03-01T08:40:12;24.63;;;16.87;;
41693;SDS011;27377;50.666;9.150;2023-03-01T08:42:38;24.38;;;16.45;;
41693;SDS011;27377;50.666;9.150;2023-03-01T08:45:05;23.58;;;16.00;;
41693;SDS011;27377;50.666;9.150;2023-03-01T08:47:31;24.67;;;16.33;;
41693;SDS011;27377;50.666;9.150;2023-03-01T08:49:58;23.02;;;16.58;;
41693;SDS011;27377;50.666;9.150;2023-03-01T08:52:27;23.55;;;15.52;;
41693;SDS011;27377;50.666;9.150;2023-03-01T08:54:55;24.67;;;15.67;;
41693;SDS011;27377;50.666;9.150;2023-03-01T08:57:21;23.58;;;15.52;;
41693;SDS011;27377;50.666;9.150;2023-03-01T08:59:47;22.15;;;15.38;;
41693;SDS011;27377;50.666;9.150;2023-03-01T09:02:13;22.38;;;15.38;;
41693;SDS011;27377;50.666;9.150;2023-03-01T09:04:40;21.15;;;14.85;;
41693;SDS011;27377;50.666;9.150;2023-03-01T09:07:06;22.05;;;14.70;;
41693;SDS011;27377;50.666;9.150;2023-03-01T09:09:33;21.42;;;14.52;;
41693;SDS011;27377;50.666;9.150;2023-03-01T09:11:58;20.93;;;14.30;;
41693;SDS011;27377;50.666;9.150;2023-03-01T09:14:24;20.00;;;14.10;;
41693;SDS011;27377;50.666;9.150;2023-03-01T09:16:50;20.57;;;13.87;;
41693;SDS011;27377;50.666;9.150;2023-03-01T09:19:15;22.58;;;14.18;;
41693;SDS011;27377;50.666;9.150;2023-03-01T09:21:41;19.45;;;12.80;;
41693;SDS011;27377;50.666;9.150;2023-03-01T09:24:17;17.55;;;12.25;;
41693;SDS011;27377;50.666;9.150;2023-03-01T09:26:44;19.00;;;12.85;;
41693;SDS011;27377;50.666;9.150;2023-03-01T09:29:13;20.25;;;13.25;;
41693;SDS011;27377;50.666;9.150;2023-03-01T09:31:39;19.42;;;13.10;;
41693;SDS011;27377;50.666;9.150;2023-03-01T09:34:05;18.92;;;13.32;;
41693;SDS011;27377;50.666;9.150;2023-03-01T09:36:31;19.92;;;13.27;;
41693;SDS011;27377;50.666;9.150;2023-03-01T09:38:58;20.77;;;12.73;;
41693;SDS011;27377;50.666;9.150;2023-03-01T09:46:56;17.33;;;12.30;;
41693;SDS011;27377;50.666;9.150;2023-03-01T09:49:33;17.73;;;12.20;;
41693;SDS011;27377;50.666;9.150;2023-03-01T09:54:46;16.38;;;11.77;;
41693;SDS011;27377;50.666;9.150;2023-03-01T09:57:17;16.98;;;11.65;;
41693;SDS011;27377;50.666;9.150;2023-03-01T10:06:00;18.35;;;11.80;;
41693;SDS011;27377;50.666;9.150;2023-03-01T10:08:36;18.10;;;12.03;;
41693;SDS011;27377;50.666;9.150;2023-03-01T10:11:17;18.75;;;11.98;;
41693;SDS011;27377;50.666;9.150;2023-03-01T10:13:55;16.95;;;11.52;;
41693;SDS011;27377;50.666;9.150;2023-03-01T10:19:14;19.25;;;11.88;;
41693;SDS011;27377;50.666;9.150;2023-03-01T10:21:48;16.58;;;11.63;;
41693;SDS011;27377;50.666;9.150;2023-03-01T10:24:16;17.52;;;11.18;;
41693;SDS011;27377;50.666;9.150;2023-03-01T10:29:23;16.90;;;11.15;;
41693;SDS011;27377;50.666;9.150;2023-03-01T10:31:57;16.77;;;11.10;;
41693;SDS011;27377;50.666;9.150;2023-03-01T10:34:31;16.63;;;11.18;;
41693;SDS011;27377;50.666;9.150;2023-03-01T10:37:13;16.33;;;11.20;;
41693;SDS011;27377;50.666;9.150;2023-03-01T10:42:33;18.90;;;11.23;;
41693;SDS011;27377;50.666;9.150;2023-03-01T10:45:23;17.58;;;11.30;;
41693;SDS011;27377;50.666;9.150;2023-03-01T10:48:08;15.85;;;10.93;;
41693;SDS011;27377;50.666;9.150;2023-03-01T10:50:39;17.65;;;11.63;;
41693;SDS011;27377;50.666;9.150;2023-03-01T10:53:21;17.17;;;11.47;;
41693;SDS011;27377;50.666;9.150;2023-03-01T10:56:09;17.58;;;11.35;;
41693;SDS011;27377;50.666;9.150;2023-03-01T10:59:03;17.53;;;11.63;;
41693;SDS011;27377;50.666;9.150;2023-03-01T11:01:31;17.67;;;11.93;;
41693;SDS011;27377;50.666;9.150;2023-03-01T11:04:08;18.57;;;11.77;;
41693;SDS011;27377;50.666;9.150;2023-03-01T11:06:40;16.48;;;11.23;;
41693;SDS011;27377;50.666;9.150;2023-03-01T11:09:18;17.55;;;11.20;;
41693;SDS011;27377;50.666;9.150;2023-03-01T11:11:51;16.65;;;11.07;;
41693;SDS011;27377;50.666;9.150;2023-03-01T11:14:22;17.35;;;11.10;;
41693;SDS011;27377;50.666;9.150;2023-03-01T11:17:00;18.57;;;11.50;;
41693;SDS011;27377;50.666;9.150;2023-03-01T11:19:28;16.33;;;11.10;;
41693;SDS011;27377;50.666;9.150;2023-03-01T11:22:11;18.95;;;11.48;;
41693;SDS011;27377;50.666;9.150;2023-03-01T11:27:48;20.05;;;11.93;;
41693;SDS011;27377;50.666;9.150;2023-03-01T11:35:30;16.27;;;11.05;;
41693;SDS011;27377;50.666;9.150;2023-03-01T11:40:32;18.02;;;11.73;;
41693;SDS011;27377;50.666;9.150;2023-03-01T11:43:19;17.25;;;11.70;;
41693;SDS011;27377;50.666;9.150;2023-03-01T11:45:55;17.80;;;10.95;;
41693;SDS011;27377;50.666;9.150;2023-03-01T11:48:53;17.35;;;11.18;;
41693;SDS011;27377;50.666;9.150;2023-03-01T12:08:29;19.00;;;10.88;;
41693;SDS011;27377;50.666;9.150;2023-03-01T12:11:25;15.85;;;10.13;;
41693;SDS011;27377;50.666;9.150;2023-03-01T12:14:28;17.60;;;10.10;;
41693;SDS011;27377;50.666;9.150;2023-03-01T12:19:56;15.82;;;10.55;;
41693;SDS011;27377;50.666;9.150;2023-03-01T12:23:08;16.10;;;10.27;;
41693;SDS011;27377;50.666;9.150;2023-03-01T12:26:08;15.52;;;10.68;;
41693;SDS011;27377;50.666;9.150;2023-03-01T12:31:54;17.08;;;10.75;;
41693;SDS011;27377;50.666;9.150;2023-03-01T12:34:49;16.10;;;10.55;;
41693;SDS011;27377;50.666;9.150;2023-03-01T12:37:29;15.82;;;10.07;;
41693;SDS011;27377;50.666;9.150;2023-03-01T12:40:32;15.57;;;10.30;;
41693;SDS011;27377;50.666;9.150;2023-03-01T12:43:33;15.13;;;9.60;;
41693;SDS011;27377;50.666;9.150;2023-03-01T12:49:14;16.27;;;9.80;;
41693;SDS011;27377;50.666;9.150;2023-03-01T12:51:46;16.02;;;9.70;;
41693;SDS011;27377;50.666;9.150;2023-03-01T12:54:25;16.05;;;9.98;;
41693;SDS011;27377;50.666;9.150;2023-03-01T12:56:53;15.20;;;9.80;;
41693;SDS011;27377;50.666;9.150;2023-03-01T12:59:26;15.15;;;9.70;;
41693;SDS011;27377;50.666;9.150;2023-03-01T13:02:08;16.40;;;9.73;;
41693;SDS011;27377;50.666;9.150;2023-03-01T13:07:40;14.32;;;9.88;;
41693;SDS011;27377;50.666;9.150;2023-03-01T13:13:23;14.30;;;9.50;;
41693;SDS011;27377;50.666;9.150;2023-03-01T13:15:52;14.88;;;9.40;;
41693;SDS011;27377;50.666;9.150;2023-03-01T13:20:48;14.70;;;9.63;;
41693;SDS011;27377;50.666;9.150;2023-03-01T13:26:00;17.42;;;9.70;;
41693;SDS011;27377;50.666;9.150;2023-03-01T13:31:06;13.37;;;9.10;;
41693;SDS011;27377;50.666;9.150;2023-03-01T13:33:58;15.95;;;9.40;;
41693;SDS011;27377;50.666;9.150;2023-03-01T13:44:11;14.53;;;8.80;;
41693;SDS011;27377;50.666;9.150;2023-03-01T13:46:50;14.90;;;9.00;;
41693;SDS011;27377;50.666;9.150;2023-03-01T13:49:18;13.95;;;9.07;;
41693;SDS011;27377;50.666;9.150;2023-03-01T13:51:46;16.05;;;9.85;;
41693;SDS011;27377;50.666;9.150;2023-03-01T13:54:13;15.00;;;9.43;;
41693;SDS011;27377;50.666;9.150;2023-03-01T13:56:41;15.95;;;9.80;;
41693;SDS011;27377;50.666;9.150;2023-03-01T13:59:15;15.48;;;9.60;;
41693;SDS011;27377;50.666;9.150;2023-03-01T14:01:43;13.40;;;9.52;;
41693;SDS011;27377;50.666;9.150;2023-03-01T14:07:10;14.18;;;9.50;;
41693;SDS011;27377;50.666;9.150;2023-03-01T14:09:39;15.07;;;10.07;;
41693;SDS011;27377;50.666;9.150;2023-03-01T14:12:14;14.38;;;9.48;;
41693;SDS011;27377;50.666;9.150;2023-03-01T14:14:59;14.68;;;9.57;;
41693;SDS011;27377;50.666;9.150;2023-03-01T14:18:00;17.83;;;10.07;;
41693;SDS011;27377;50.666;9.150;2023-03-01T14:20:46;15.85;;;9.40;;
41693;SDS011;27377;50.666;9.150;2023-03-01T14:23:17;14.65;;;9.93;;
41693;SDS011;27377;50.666;9.150;2023-03-01T14:25:46;14.75;;;9.75;;
41693;SDS011;27377;50.666;9.150;2023-03-01T14:28:24;13.07;;;8.85;;
41693;SDS011;27377;50.666;9.150;2023-03-01T14:30:53;14.40;;;9.00;;
41693;SDS011;27377;50.666;9.150;2023-03-01T14:33:31;15.30;;;9.45;;
41693;SDS011;27377;50.666;9.150;2023-03-01T14:38:32;13.10;;;8.57;;
41693;SDS011;27377;50.666;9.150;2023-03-01T14:41:24;13.95;;;8.65;;
41693;SDS011;27377;50.666;9.150;2023-03-01T14:43:53;13.30;;;8.70;;
41693;SDS011;27377;50.666;9.150;2023-03-01T14:46:24;12.77;;;8.20;;
41693;SDS011;27377;50.666;9.150;2023-03-01T14:48:57;12.15;;;8.07;;
41693;SDS011;27377;50.666;9.150;2023-03-01T14:51:41;12.95;;;8.27;;
41693;SDS011;27377;50.666;9.150;2023-03-01T14:54:29;14.48;;;8.25;;
41693;SDS011;27377;50.666;9.150;2023-03-01T14:57:05;11.25;;;7.63;;
41693;SDS011;27377;50.666;9.150;2023-03-01T14:59:35;13.13;;;7.97;;
41693;SDS011;27377;50.666;9.150;2023-03-01T15:02:01;11.75;;;7.57;;
41693;SDS011;27377;50.666;9.150;2023-03-01T15:04:28;11.55;;;7.80;;
41693;SDS011;27377;50.666;9.150;2023-03-01T15:07:01;13.05;;;7.82;;
41693;SDS011;27377;50.666;9.150;2023-03-01T15:09:47;12.73;;;7.72;;
41693;SDS011;27377;50.666;9.150;2023-03-01T15:14:57;10.43;;;7.43;;
41693;SDS011;27377;50.666;9.150;2023-03-01T15:17:29;13.88;;;8.15;;
41693;SDS011;27377;50.666;9.150;2023-03-01T15:19:59;12.18;;;7.90;;
41693;SDS011;27377;50.666;9.150;2023-03-01T15:22:30;12.43;;;7.75;;
41693;SDS011;27377;50.666;9.150;2023-03-01T15:24:56;12.23;;;7.47;;
41693;SDS011;27377;50.666;9.150;2023-03-01T15:27:33;11.60;;;7.60;;
41693;SDS011;27377;50.666;9.150;2023-03-01T15:29:59;13.00;;;8.30;;
41693;SDS011;27377;50.666;9.150;2023-03-01T15:32:30;12.02;;;7.53;;
41693;SDS011;27377;50.666;9.150;2023-03-01T15:37:59;12.15;;;8.00;;
41693;SDS011;27377;50.666;9.150;2023-03-01T15:40:29;12.02;;;7.63;;
41693;SDS011;27377;50.666;9.150;2023-03-01T15:45:29;12.68;;;8.27;;
41693;SDS011;27377;50.666;9.150;2023-03-01T15:48:00;11.60;;;7.87;;
41693;SDS011;27377;50.666;9.150;2023-03-01T15:50:53;12.50;;;8.70;;
41693;SDS011;27377;50.666;9.150;2023-03-01T15:53:20;14.15;;;8.65;;
41693;SDS011;27377;50.666;9.150;2023-03-01T15:55:45;14.47;;;8.73;;
41693;SDS011;27377;50.666;9.150;2023-03-01T15:58:21;12.77;;;8.35;;
41693;SDS011;27377;50.666;9.150;2023-03-01T16:00:49;13.13;;;8.57;;
41693;SDS011;27377;50.666;9.150;2023-03-01T16:03:21;13.93;;;8.60;;
41693;SDS011;27377;50.666;9.150;2023-03-01T16:05:50;11.90;;;8.32;;
41693;SDS011;27377;50.666;9.150;2023-03-01T16:08:16;12.00;;;8.27;;
41693;SDS011;27377;50.666;9.150;2023-03-01T16:10:43;12.57;;;8.15;;
41693;SDS011;27377;50.666;9.150;2023-03-01T16:13:11;12.80;;;8.20;;
41693;SDS011;27377;50.666;9.150;2023-03-01T16:15:37;13.00;;;8.10;;
41693;SDS011;27377;50.666;9.150;2023-03-01T16:18:04;11.27;;;7.43;;
41693;SDS011;27377;50.666;9.150;2023-03-01T16:20:31;12.05;;;7.95;;
41693;SDS011;27377;50.666;9.150;2023-03-01T16:22:58;12.30;;;8.18;;
41693;SDS011;27377;50.666;9.150;2023-03-01T16:25:26;11.05;;;7.63;;